Stations météo

Publicité
Mende, France (7554): Température de l'air & dewpoint: 14.09.2019 05:00:00 - 20.09.2019 05:00:00 (CEST)Mende, France (7554): Température de l'air 5cm: 14.09.2019 05:00:00 - 20.09.2019 05:00:00 (CEST)Mende, France (7554): Température de l'air -20cm & Température de l'air -100cm: 14.09.2019 05:00:00 - 20.09.2019 05:00:00 (CEST)Mende, France (7554): Vitesse du vent & gusts: 14.09.2019 05:00:00 - 20.09.2019 05:00:00 (CEST)Mende, France (7554): Direction du vent: 14.09.2019 05:00:00 - 20.09.2019 05:00:00 (CEST)Mende, France (7554): visibility: 14.09.2019 05:00:00 - 20.09.2019 05:00:00 (CEST)Mende, France (7554): Ensoleillement: 14.09.2019 05:00:00 - 20.09.2019 05:00:00 (CEST)Mende, France (7554): Quantités de précipitations: 14.09.2019 05:00:00 - 20.09.2019 05:00:00 (CEST)
Date & Time tt [°C] td [°C] tt 5cm [°C] tt -20cm [°C] tt -100cm [°C] ff [km/h] ff [knt] fx [km/h] fx [knt] dd vv [km] sd [min] rr [mm]
20.09.2019 05:00:00 9,8 2,6 8,3 19,5 17,1 11 6 20 11 E 20 0 0,0
20.09.2019 04:00:00 9,5 2,3 8,4 19,5 17,1 9 5 14 7 E 20 0 0,0
20.09.2019 03:00:00 10,2 2,3 8,9 19,6 17,1 9 5 21 11 E 20 0 0,0
20.09.2019 02:00:00 10,8 2,9 9,8 19,6 17,1 10 5 18 10 E 20 0 0,0
20.09.2019 01:00:00 11,2 3,7 7,6 19,5 17,0 10 5 17 9 E 20 0 0,0
20.09.2019 00:00:00 11,5 4,2 8,5 19,5 17,1 5 3 10 6 E 20 0 0,0
19.09.2019 23:00:00 11,9 4,4 8,8 19,4 17,1 7 4 14 8 ESE 20 0 0,0
19.09.2019 22:00:00 12,9 4,1 10,4 19,3 17,1 6 3 14 8 E 20 0 0,0
19.09.2019 21:00:00 14,5 3,9 12,8 19,1 17,1 11 6 31 17 ENE 18 0 0,0
19.09.2019 20:00:00 16,5 4,8 15,2 19,0 17,1 14 8 32 17 ENE 20 28 0,0
19.09.2019 19:00:00 19,2 3,8 21,3 18,9 17,1 13 7 29 16 NE 20 60 0,0
19.09.2019 18:00:00 21,6 2,8 26,9 18,8 17,1 16 9 29 16 NNE 20 60 0,0
19.09.2019 17:00:00 22,5 2,0 29,2 18,7 17,0 15 8 31 17 NNE 20 60 0,0
19.09.2019 16:00:00 23,0 2,4 31,2 18,8 17,1 12 7 25 14 NE 20 60 0,0
19.09.2019 15:00:00 23,2 0,9 31,5 18,8 17,0 10 5 23 13 ENE 20 60 0,0
19.09.2019 14:00:00 23,2 2,1 29,7 18,9 17,1 6 3 26 14 SE 20 60 0,0
19.09.2019 13:00:00 21,4 0,5 25,5 19,0 17,0 10 5 22 12 ENE 20 60 0,0
19.09.2019 12:00:00 19,2 5,3 23,5 19,1 17,1 12 6 22 12 SSE 20 60 0,0
19.09.2019 11:00:00 17,0 7,6 20,1 19,3 17,0 8 5 18 10 SE 20 60 0,0
19.09.2019 10:00:00 14,6 6,7 17,7 19,4 17,0 5 3 11 6 ESE 20 60 0,0
19.09.2019 09:00:00 12,5 5,9 7,6 19,5 17,1 0 0 9 5 N 20 41 0,0
19.09.2019 08:00:00 9,9 5,3 6,8 19,7 17,0 5 3 10 6 NE 20 0 0,0
19.09.2019 07:00:00 9,8 5,8 7,4 19,8 17,0 7 4 11 6 NNE 20 0 0,0
19.09.2019 06:00:00 10,9 6,2 8,0 19,8 17,0 7 4 13 7 ENE 20 0 0,0
19.09.2019 05:00:00 11,2 6,5 8,5 19,9 17,0 4 2 14 8 E 20 0 0,0
19.09.2019 04:00:00 11,9 7,2 9,8 20,0 17,0 4 2 11 6 ENE 20 0 0,0
19.09.2019 03:00:00 12,5 7,6 11,3 20,1 17,0 8 4 13 7 E 20 0 0,0
19.09.2019 02:00:00 13,1 8,2 11,5 20,1 17,1 5 3 13 7 ENE 20 0 0,0
19.09.2019 01:00:00 13,5 8,8 12,5 20,2 17,0 8 4 14 7 E 20 0 0,0
19.09.2019 00:00:00 14,1 8,9 13,0 20,2 17,0 8 4 16 8 E 20 0 0,0
18.09.2019 23:00:00 15,2 9,5 14,1 20,2 17,0 7 4 11 6 E 20 0 0,0
18.09.2019 22:00:00 15,3 13,1 14,7 20,1 17,1 3 1 14 8 ESE 20 0 0,0
18.09.2019 21:00:00 16,2 13,9 15,3 20,1 17,0 6 3 14 8 WSW 20 0 0,0
18.09.2019 20:00:00 16,7 13,2 15,8 20,0 16,9 3 2 9 5 ESE 20 0 0,0
18.09.2019 19:00:00 17,1 14,4 16,1 19,9 17,0 2 1 11 6 N 20 0 0,0
18.09.2019 18:00:00 18,5 13,6 16,8 19,8 17,0 4 2 15 8 E 20 0 0,0
18.09.2019 17:00:00 19,8 14,4 17,7 19,8 17,0 9 5 16 9 SE 19 0 0,0
18.09.2019 16:00:00 20,7 15,3 18,0 19,8 17,0 10 5 42 23 N 20 12 2,0
18.09.2019 15:00:00 28,5 9,7 34,1 19,8 17,0 5 3 30 16 W 20 58 0,0
18.09.2019 14:00:00 27,2 10,4 33,7 19,9 17,0 15 8 33 18 SSW 20 60 0,0
18.09.2019 13:00:00 25,7 10,3 31,5 20,0 17,0 4 2 16 9 W 20 60 0,0
18.09.2019 12:00:00 24,0 10,3 29,3 20,1 16,9 3 1 16 9 ESE 20 60 0,0
18.09.2019 11:00:00 21,5 10,3 23,4 20,2 17,0 3 2 16 9 E 20 60 0,0
18.09.2019 10:00:00 18,6 10,4 18,3 20,3 17,0 9 5 18 10 ESE 20 60 0,0
18.09.2019 09:00:00 15,6 9,5 13,5 20,4 17,0 7 4 16 9 ESE 20 43 0,0
18.09.2019 08:00:00 13,8 8,8 12,2 20,5 17,0 10 6 17 9 E 20 0 0,0
18.09.2019 07:00:00 13,7 8,3 11,2 20,6 17,0 7 4 15 8 E 20 0 0,0
18.09.2019 06:00:00 14,1 8,3 13,1 20,6 17,0 8 5 18 10 E 20 0 0,0
18.09.2019 05:00:00 14,6 8,3 13,0 20,7 17,0 9 5 19 10 E 20 0 0,0
18.09.2019 04:00:00 15,0 8,5 13,2 20,7 16,9 7 4 16 9 E 20 0 0,0
18.09.2019 03:00:00 15,8 8,8 13,5 20,7 17,0 9 5 13 7 ENE 20 0 0,0
18.09.2019 02:00:00 16,0 9,0 14,5 20,6 17,0 8 5 14 7 E 20 0 0,0
18.09.2019 01:00:00 16,9 9,8 15,2 20,6 17,0 6 4 15 8 ESE 20 0 0,0
18.09.2019 00:00:00 18,1 9,7 16,0 20,4 16,9 8 4 10 6 E 20 0 0,0
17.09.2019 23:00:00 18,9 10,2 16,7 20,3 17,0 4 2 22 12 E 20 0 0,0
17.09.2019 22:00:00 20,3 11,2 18,4 20,1 17,0 9 5 23 13 E 20 0 0,0
17.09.2019 21:00:00 20,6 12,3 19,8 20,0 17,0 6 3 15 8 SSE 20 0 0,0
17.09.2019 20:00:00 22,3 12,0 21,9 19,8 17,0 6 3 17 9 ESE 20 31 0,0
17.09.2019 19:00:00 23,0 12,0 23,4 19,6 16,9 11 6 22 12 SE 20 16 0,0
17.09.2019 18:00:00 26,6 11,5 28,1 19,5 17,0 11 6 37 20 S 20 34 0,0
17.09.2019 17:00:00 30,2 9,1 30,5 19,4 17,0 12 6 37 20 NNW 20 41 0,0
17.09.2019 16:00:00 30,9 9,7 37,3 19,4 16,9 9 5 19 10 SW 20 60 0,0
17.09.2019 15:00:00 30,1 9,6 36,7 19,4 16,9 8 4 22 12 SSE 20 60 0,0
17.09.2019 14:00:00 29,3 9,9 36,3 19,5 16,9 8 4 21 12 W 20 60 0,0
17.09.2019 13:00:00 28,4 10,1 35,0 19,6 17,0 8 4 14 7 SSW 20 60 0,0
17.09.2019 12:00:00 26,7 10,4 30,8 19,6 16,9 6 3 10 5 W 20 60 0,0
17.09.2019 11:00:00 23,6 11,3 27,6 19,8 16,9 5 3 10 5 SE 20 60 0,0
17.09.2019 10:00:00 20,6 11,0 20,0 19,8 16,9 5 3 11 6 E 20 60 0,0
17.09.2019 09:00:00 16,6 10,0 13,9 19,9 16,9 4 2 13 7 ESE 20 52 0,0
17.09.2019 08:00:00 14,3 9,3 13,2 20,0 16,9 8 4 16 9 ESE 20 3 0,0
17.09.2019 07:00:00 14,3 9,3 13,0 20,1 16,9 10 5 13 7 ESE 20 0 0,0
17.09.2019 06:00:00 14,1 9,1 13,3 20,1 16,9 8 4 15 8 ESE 20 0 0,0
17.09.2019 05:00:00 14,3 9,1 13,4 20,2 16,9 9 5 15 8 ESE 20 0 0,0
17.09.2019 04:00:00 14,7 9,1 13,7 20,2 16,9 9 5 11 6 E 20 0 0,0
17.09.2019 03:00:00 14,9 9,5 13,9 20,2 16,9 9 5 15 8 ESE 20 0 0,0
17.09.2019 02:00:00 16,2 9,6 14,9 20,1 16,9 9 5 13 7 E 20 0 0,0
17.09.2019 01:00:00 16,6 10,0 15,5 20,0 17,0 8 4 11 6 ESE 20 0 0,0
17.09.2019 00:00:00 17,6 10,0 16,2 19,9 17,0 9 5 13 7 E 20 0 0,0
16.09.2019 23:00:00 18,1 10,0 17,1 19,7 16,9 11 6 16 9 E 20 0 0,0
16.09.2019 22:00:00 19,5 9,9 18,3 19,6 17,0 9 5 13 7 E 20 0 0,0
16.09.2019 21:00:00 20,8 10,0 18,6 19,3 16,9 8 4 16 9 E 20 0 0,0
16.09.2019 20:00:00 21,0 10,2 19,2 19,2 16,9 13 7 39 21 NE 20 0 0,0
16.09.2019 19:00:00 24,7 10,6 25,3 19,0 16,9 16 9 30 16 NE 20 53 0,0
16.09.2019 18:00:00 29,6 8,6 35,0 18,9 16,9 9 5 22 12 E 20 60 0,0
16.09.2019 17:00:00 31,4 7,1 37,0 18,8 16,9 7 4 24 13 W 20 60 0,0
16.09.2019 16:00:00 30,6 7,1 36,4 18,8 16,9 7 4 20 11 SW 20 60 0,0
16.09.2019 15:00:00 30,9 7,4 38,1 18,8 16,9 8 4 19 10 WNW 20 60 0,0
16.09.2019 14:00:00 30,0 7,2 37,5 18,8 16,9 8 4 16 9 W 20 60 0,0
16.09.2019 13:00:00 29,1 6,5 35,1 18,9 16,9 7 4 16 8 WSW 20 60 0,0
16.09.2019 12:00:00 26,1 5,1 30,6 19,0 16,9 4 2 8 5 WNW 18 60 0,0
16.09.2019 11:00:00 21,6 5,5 24,2 19,2 16,9 4 2 7 4 WNW 19 60 0,0
16.09.2019 10:00:00 18,3 6,2 17,1 19,3 16,9 3 2 11 6 SSE 20 60 0,0
16.09.2019 09:00:00 14,4 3,8 12,4 19,4 16,9 9 5 13 7 SE 20 58 0,0
16.09.2019 08:00:00 12,9 1,8 12,0 19,5 16,9 9 5 13 7 ESE 20 5 0,0
16.09.2019 07:00:00 13,3 1,0 11,9 19,6 16,9 9 5 14 8 ESE 20 0 0,0
16.09.2019 06:00:00 12,9 2,4 11,8 19,6 16,9 13 7 16 9 ESE 20 0 0,0
16.09.2019 05:00:00 13,3 3,4 12,0 19,6 16,9 10 5 13 7 ESE 20 0 0,0
16.09.2019 04:00:00 13,6 4,2 12,4 19,7 16,8 11 6 14 8 SE 20 0 0,0
16.09.2019 03:00:00 13,5 5,6 12,6 19,7 16,9 10 5 14 8 ESE 20 0 0,0
16.09.2019 02:00:00 14,0 6,6 13,0 19,6 16,9 12 6 16 9 ESE 20 0 0,0
16.09.2019 01:00:00 14,9 7,7 12,4 19,6 16,9 9 5 13 7 ESE 20 0 0,0
16.09.2019 00:00:00 15,4 7,9 14,3 19,5 16,9 9 5 11 6 ESE 20 0 0,0
15.09.2019 23:00:00 16,8 8,0 13,5 19,3 16,9 4 2 9 5 ESE 20 0 0,0
15.09.2019 22:00:00 18,7 7,8 15,5 19,2 16,9 5 3 9 5 ESE 20 0 0,0
15.09.2019 21:00:00 20,3 8,0 16,2 19,0 16,9 5 3 16 8 ENE 20 0 0,0
15.09.2019 20:00:00 21,5 7,7 20,1 18,9 16,9 8 4 22 12 SSE 20 36 0,0
15.09.2019 19:00:00 24,1 8,1 25,0 18,7 16,9 13 7 19 10 S 20 60 0,0
15.09.2019 18:00:00 26,1 7,6 29,8 18,6 16,8 11 6 19 10 S 20 60 0,0
15.09.2019 17:00:00 26,9 7,4 31,4 18,5 16,9 9 5 24 13 S 20 60 0,0
15.09.2019 16:00:00 26,3 7,8 31,2 18,5 16,8 18 10 29 15 SSE 20 60 0,0
15.09.2019 15:00:00 26,8 8,7 33,0 18,6 16,9 15 8 24 13 SSE 20 60 0,0
15.09.2019 14:00:00 27,2 8,6 32,4 18,6 16,9 12 7 27 15 S 20 60 0,0
15.09.2019 13:00:00 25,5 8,9 27,8 18,7 16,8 9 5 21 11 SSE 20 53 0,0
15.09.2019 12:00:00 23,2 9,9 16,5 18,8 16,9 6 4 22 12 SW 20 24 0,2
15.09.2019 11:00:00 21,4 8,3 22,2 18,8 16,8 13 7 26 14 ESE 20 30 0,0
15.09.2019 10:00:00 19,8 10,2 17,3 18,9 16,9 6 4 13 7 ESE 20 60 0,0
15.09.2019 09:00:00 14,8 9,4 13,3 19,0 16,8 9 5 14 7 ESE 20 58 0,0
15.09.2019 08:00:00 13,6 8,6 12,4 19,1 16,9 9 5 14 7 ESE 20 2 0,0
15.09.2019 07:00:00 13,4 8,5 12,7 19,2 16,9 9 5 13 7 ESE 20 0 0,0
15.09.2019 06:00:00 13,2 8,7 12,5 19,2 16,9 10 5 12 7 ESE 20 0 0,0
15.09.2019 05:00:00 13,4 8,7 12,2 19,3 16,9 7 4 14 8 SE 20 0 0,0
15.09.2019 04:00:00 13,3 8,8 12,2 19,3 16,9 9 5 17 9 ESE 20 0 0,0
15.09.2019 03:00:00 14,2 9,0 12,5 19,3 16,8 11 6 15 8 E 20 0 0,0
15.09.2019 02:00:00 14,1 9,5 13,2 19,3 16,9 10 6 14 7 ESE 20 0 0,0
15.09.2019 01:00:00 14,6 9,6 13,9 19,2 16,9 12 7 16 9 ESE 20 0 0,0
15.09.2019 00:00:00 16,2 9,6 15,4 19,1 16,9 9 5 12 6 ESE 20 0 0,0
14.09.2019 23:00:00 17,3 9,7 12,7 19,0 16,9 8 4 11 6 ESE 20 0 0,0
14.09.2019 22:00:00 18,8 10,1 13,2 18,9 16,8 2 1 7 4 NNW 20 0 0,0
14.09.2019 21:00:00 20,1 9,3 15,4 18,8 16,9 0 0 6 4 N 20 0 0,0
14.09.2019 20:00:00 22,2 9,4 20,6 18,7 16,9 5 3 16 9 ESE 20 38 0,0
14.09.2019 19:00:00 25,1 9,4 26,7 18,6 16,8 6 3 16 8 E 20 60 0,0
14.09.2019 18:00:00 26,3 9,2 28,3 18,5 16,9 10 5 19 10 SE 20 55 0,0
14.09.2019 17:00:00 25,6 8,1 27,9 18,4 16,9 8 4 21 11 S 20 1 0,0
14.09.2019 16:00:00 27,2 8,1 32,1 18,4 16,8 5 3 22 12 SSE 20 54 0,0
14.09.2019 15:00:00 25,9 8,4 30,8 18,4 16,9 5 3 15 8 E 20 41 0,0
14.09.2019 14:00:00 24,7 9,8 22,7 18,6 16,9 3 2 13 7 WNW 20 9 0,0
14.09.2019 13:00:00 22,5 10,0 24,5 18,6 16,8 9 5 13 7 W 20 0 0,0
14.09.2019 12:00:00 23,4 7,5 27,3 18,7 16,8 5 3 10 5 ENE 20 29 0,0
14.09.2019 11:00:00 22,4 9,5 21,8 18,8 16,8 4 2 9 5 SE 20 50 0,0
14.09.2019 10:00:00 17,4 9,6 16,1 18,9 16,8 3 2 13 7 E 20 56 0,0
14.09.2019 09:00:00 14,1 8,7 12,9 19,0 16,9 11 6 17 9 SE 20 60 0,0
14.09.2019 08:00:00 12,9 8,2 11,7 19,1 16,9 5 3 15 8 ESE 20 16 0,0
14.09.2019 07:00:00 13,0 8,3 11,7 19,1 16,9 10 6 15 8 ESE 20 0 0,0
14.09.2019 06:00:00 12,7 8,0 11,8 19,2 16,8 10 5 16 9 ESE 20 0 0,0
14.09.2019 05:00:00 13,5 8,1 11,3 19,2 16,8 7 4 9 5 E 20 0 0,0

tt = Température de l'air
td = dewpoint
tt 5cm = Température de l'air 5cm
tt -20cm = Température de l'air -20cm
tt -100cm = Température de l'air -100cm
ff = Vitesse du vent
fx = gusts
dd = Direction du vent
vv = visibility
sd = Ensoleillement
rr = Quantités de précipitations

stations d'obs. à proximité